Time,TemperatureF,DewpointF,PressureIn,WindDirection,WindDirectionDegrees,WindSpeedMPH,WindSpeedGustMPH,Humidity,HourlyPrecipIn,Conditions,Clouds,dailyrainin,SoftwareType,DateUTC
2013-01-14 00:16:00,53.0,51.3,29.79,SSE,155,1.0,4.0,94,0.00,,,0.00,VWS V14.01,2013-01-14 05:16:00,
2013-01-14 00:31:00,52.8,51.1,29.79,SSE,160,0.0,3.0,94,0.00,,,0.00,VWS V14.01,2013-01-14 05:31:00,
2013-01-14 00:46:00,52.6,50.6,29.79,SSE,168,1.0,2.0,93,0.00,,,0.00,VWS V14.01,2013-01-14 05:46:00,
2013-01-14 01:01:00,52.7,50.5,29.79,SW,214,1.0,4.0,92,0.00,,,0.00,VWS V14.01,2013-01-14 06:01:00,
2013-01-14 01:16:00,52.8,50.5,29.80,SSW,209,0.0,6.0,92,0.00,,,0.00,VWS V14.01,2013-01-14 06:16:00,
2013-01-14 01:31:00,53.3,51.0,29.80,SW,221,1.0,7.0,92,0.00,,,0.00,VWS V14.01,2013-01-14 06:31:00,
2013-01-14 01:46:00,53.7,51.4,29.82,SSW,207,1.0,7.0,92,0.00,,,0.00,VWS V14.01,2013-01-14 06:46:00,
2013-01-14 02:01:00,52.2,49.1,29.88,West,277,2.0,18.0,89,0.01,,,0.01,VWS V14.01,2013-01-14 07:01:00,
2013-01-14 02:16:00,48.5,46.0,29.91,WSW,242,6.0,17.0,91,0.02,,,0.02,VWS V14.01,2013-01-14 07:16:00,
2013-01-14 02:31:00,46.0,43.2,29.94,SW,224,19.0,21.0,90,0.02,,,0.02,VWS V14.01,2013-01-14 07:31:00,
2013-01-14 02:46:00,45.0,42.5,29.95,WNW,296,13.0,19.0,91,0.02,,,0.02,VWS V14.01,2013-01-14 07:46:00,
2013-01-14 03:01:00,43.2,40.8,29.97,SW,232,7.0,23.0,91,0.02,,,0.02,VWS V14.01,2013-01-14 08:01:00,
2013-01-14 03:16:00,42.3,39.9,29.99,WNW,295,9.0,18.0,91,0.01,,,0.02,VWS V14.01,2013-01-14 08:16:00,
2013-01-14 03:31:00,42.0,39.8,29.98,West,261,3.0,16.0,92,0.00,,,0.02,VWS V14.01,2013-01-14 08:31:00,
2013-01-14 03:46:00,41.8,39.4,29.97,West,275,3.0,15.0,91,0.00,,,0.02,VWS V14.01,2013-01-14 08:46:00,
2013-01-14 04:01:00,41.9,39.5,30.00,West,270,3.0,11.0,91,0.00,,,0.02,VWS V14.01,2013-01-14 09:01:00,
2013-01-14 04:16:00,41.8,39.1,30.02,West,264,0.0,12.0,90,0.00,,,0.02,VWS V14.01,2013-01-14 09:16:00,
2013-01-14 04:31:00,41.6,38.9,30.03,West,281,9.0,11.0,90,0.00,,,0.02,VWS V14.01,2013-01-14 09:31:00,
2013-01-14 04:46:00,41.6,38.6,30.04,West,271,7.0,11.0,89,0.00,,,0.02,VWS V14.01,2013-01-14 09:46:00,
2013-01-14 05:01:00,41.4,38.4,30.04,West,277,3.0,11.0,89,0.00,,,0.02,VWS V14.01,2013-01-14 10:01:00,
2013-01-14 05:16:00,41.1,38.1,30.05,West,272,4.0,12.0,89,0.00,,,0.02,VWS V14.01,2013-01-14 10:16:00,
2013-01-14 05:31:00,41.1,37.8,30.06,WNW,294,1.0,10.0,88,0.00,,,0.02,VWS V14.01,2013-01-14 10:31:00,
2013-01-14 05:46:00,40.7,36.5,30.08,West,270,10.0,15.0,85,0.00,,,0.02,VWS V14.01,2013-01-14 10:46:00,
2013-01-14 06:01:00,40.3,36.2,30.09,West,269,4.0,16.0,85,0.00,,,0.02,VWS V14.01,2013-01-14 11:01:00,
2013-01-14 06:16:00,40.0,35.9,30.11,NW,312,4.0,15.0,85,0.00,,,0.02,VWS V14.01,2013-01-14 11:16:00,
2013-01-14 06:31:00,39.8,36.0,30.12,West,268,1.0,13.0,86,0.00,,,0.02,VWS V14.01,2013-01-14 11:31:00,
2013-01-14 06:46:00,39.5,35.7,30.14,WNW,297,3.0,10.0,86,0.00,,,0.02,VWS V14.01,2013-01-14 11:46:00,
2013-01-14 07:01:00,39.1,35.0,30.15,West,265,8.0,17.0,85,0.00,,,0.02,VWS V14.01,2013-01-14 12:01:00,
2013-01-14 07:16:00,38.6,32.7,30.16,West,268,7.0,14.0,79,0.00,,,0.02,VWS V14.01,2013-01-14 12:16:00,
2013-01-14 07:31:00,38.2,32.9,30.18,WSW,241,4.0,13.0,81,0.00,,,0.02,VWS V14.01,2013-01-14 12:31:00,
2013-01-14 07:46:00,37.3,31.4,30.19,WSW,244,5.0,14.0,79,0.00,,,0.02,VWS V14.01,2013-01-14 12:46:00,
2013-01-14 08:01:00,36.8,30.6,30.21,West,279,4.0,15.0,78,0.00,,,0.02,VWS V14.01,2013-01-14 13:01:00,
2013-01-14 08:16:00,36.4,30.5,30.23,WNW,302,2.0,12.0,79,0.00,,,0.02,VWS V14.01,2013-01-14 13:16:00,
2013-01-14 08:31:00,36.2,30.3,30.23,West,272,2.0,14.0,79,0.00,,,0.02,VWS V14.01,2013-01-14 13:31:00,
2013-01-14 08:46:00,35.8,29.6,30.25,WNW,286,2.0,11.0,78,0.00,,,0.02,VWS V14.01,2013-01-14 13:46:00,
2013-01-14 09:01:00,35.0,28.9,30.26,WNW,295,6.0,15.0,78,0.00,,,0.02,VWS V14.01,2013-01-14 14:01:00,
2013-01-14 09:16:00,34.6,28.1,30.28,WNW,288,6.0,12.0,77,0.00,,,0.02,VWS V14.01,2013-01-14 14:16:00,
2013-01-14 09:31:00,34.1,27.0,30.29,West,268,4.0,15.0,75,0.00,,,0.02,VWS V14.01,2013-01-14 14:31:00,
2013-01-14 09:46:00,34.0,26.9,30.30,West,264,3.0,14.0,75,0.00,,,0.02,VWS V14.01,2013-01-14 14:46:00,
2013-01-14 10:01:00,33.6,26.2,30.31,WSW,252,1.0,13.0,74,0.00,,,0.02,VWS V14.01,2013-01-14 15:01:00,
2013-01-14 10:16:00,33.4,26.3,30.32,WSW,252,2.0,11.0,75,0.00,,,0.02,VWS V14.01,2013-01-14 15:16:00,
2013-01-14 10:31:00,33.4,26.7,30.32,West,273,5.0,10.0,76,0.00,,,0.02,VWS V14.01,2013-01-14 15:31:00,
2013-01-14 10:46:00,33.2,26.8,30.34,WNW,300,6.0,11.0,77,0.00,,,0.02,VWS V14.01,2013-01-14 15:46:00,
2013-01-14 11:01:00,33.2,27.1,30.34,NNW,330,2.0,15.0,78,0.00,,,0.02,VWS V14.01,2013-01-14 16:01:00,
2013-01-14 11:16:00,33.0,25.6,30.34,West,275,4.0,10.0,74,0.00,,,0.02,VWS V14.01,2013-01-14 16:16:00,
2013-01-14 11:31:00,33.3,24.9,30.34,NW,304,10.0,12.0,71,0.00,,,0.02,VWS V14.01,2013-01-14 16:31:00,
2013-01-14 11:46:00,33.6,24.9,30.34,West,259,7.0,13.0,70,0.00,,,0.02,VWS V14.01,2013-01-14 16:46:00,
2013-01-14 12:01:00,33.9,24.8,30.33,WNW,288,6.0,9.0,69,0.00,,,0.02,VWS V14.01,2013-01-14 17:01:00,
2013-01-14 12:16:00,33.5,25.8,30.34,West,276,4.0,8.0,73,0.00,,,0.02,VWS V14.01,2013-01-14 17:16:00,
2013-01-14 12:31:00,33.3,25.9,30.34,West,263,6.0,6.0,74,0.00,,,0.02,VWS V14.01,2013-01-14 17:31:00,
2013-01-14 12:46:00,33.4,26.0,30.33,West,259,3.0,12.0,74,0.00,,,0.02,VWS V14.01,2013-01-14 17:46:00,
2013-01-14 13:01:00,33.0,25.0,30.34,WSW,251,4.0,9.0,72,0.00,,,0.02,VWS V14.01,2013-01-14 18:01:00,
2013-01-14 13:16:00,33.0,25.6,30.34,WNW,284,3.0,9.0,74,0.00,,,0.02,VWS V14.01,2013-01-14 18:16:00,
2013-01-14 13:31:00,32.8,25.1,30.34,WNW,288,5.0,11.0,73,0.00,,,0.02,VWS V14.01,2013-01-14 18:31:00,
2013-01-14 13:46:00,33.2,26.1,30.35,WSW,241,4.0,8.0,75,0.00,,,0.02,VWS V14.01,2013-01-14 18:46:00,
2013-01-14 14:01:00,32.7,25.0,30.35,West,259,1.0,7.0,73,0.00,,,0.02,VWS V14.01,2013-01-14 19:01:00,
2013-01-14 14:16:00,32.4,24.7,30.36,West,269,6.0,9.0,73,0.00,,,0.02,VWS V14.01,2013-01-14 19:16:00,
2013-01-14 14:31:00,31.9,24.9,30.36,WNW,300,5.0,8.0,75,0.00,,,0.02,VWS V14.01,2013-01-14 19:31:00,
2013-01-14 14:46:00,32.1,25.1,30.36,WNW,282,3.0,8.0,75,0.00,,,0.02,VWS V14.01,2013-01-14 19:46:00,
2013-01-14 15:01:00,32.1,24.8,30.36,WNW,302,2.0,7.0,74,0.00,,,0.02,VWS V14.01,2013-01-14 20:01:00,
2013-01-14 15:16:00,31.8,24.1,30.36,West,263,3.0,8.0,73,0.00,,,0.02,VWS V14.01,2013-01-14 20:16:00,
2013-01-14 15:31:00,31.7,23.7,30.37,WNW,288,3.0,8.0,72,0.00,,,0.02,VWS V14.01,2013-01-14 20:31:00,
2013-01-14 15:46:00,31.7,24.0,30.36,West,265,3.0,6.0,73,0.00,,,0.02,VWS V14.01,2013-01-14 20:46:00,
2013-01-14 16:01:00,31.6,24.3,30.38,WNW,282,3.0,8.0,74,0.00,,,0.02,VWS V14.01,2013-01-14 21:01:00,
2013-01-14 16:16:00,31.5,24.2,30.39,WNW,287,5.0,7.0,74,0.00,,,0.02,VWS V14.01,2013-01-14 21:16:00,
2013-01-14 16:31:00,31.3,24.3,30.39,West,273,0.0,6.0,75,0.00,,,0.02,VWS V14.01,2013-01-14 21:31:00,
2013-01-14 16:46:00,31.1,24.1,30.40,WNW,283,1.0,5.0,75,0.00,,,0.02,VWS V14.01,2013-01-14 21:46:00,
2013-01-14 17:01:00,31.0,24.0,30.40,SW,234,0.0,6.0,75,0.00,,,0.02,VWS V14.01,2013-01-14 22:01:00,
2013-01-14 17:16:00,30.9,24.2,30.40,West,281,3.0,5.0,76,0.00,,,0.02,VWS V14.01,2013-01-14 22:16:00,
2013-01-14 17:31:00,30.7,23.1,30.42,West,272,7.0,8.0,73,0.00,,,0.02,VWS V14.01,2013-01-14 22:31:00,
2013-01-14 17:46:00,30.8,23.2,30.44,NW,307,3.0,9.0,73,0.00,,,0.02,VWS V14.01,2013-01-14 22:46:00,
2013-01-14 18:01:00,30.8,23.8,30.43,WSW,252,3.0,8.0,75,0.00,,,0.02,VWS V14.01,2013-01-14 23:01:00,
2013-01-14 18:16:00,30.7,23.7,30.41,West,271,1.0,6.0,75,0.00,,,0.02,VWS V14.01,2013-01-14 23:16:00,
2013-01-14 18:31:00,30.4,23.4,30.44,WSW,257,3.0,7.0,75,0.00,,,0.02,VWS V14.01,2013-01-14 23:31:00,
2013-01-14 18:46:00,30.4,23.1,30.44,WNW,296,4.0,9.0,74,0.00,,,0.02,VWS V14.01,2013-01-14 23:46:00,
2013-01-14 19:01:00,30.2,22.6,30.45,WNW,295,4.0,10.0,73,0.00,,,0.02,VWS V14.01,2013-01-15 00:01:00,
2013-01-14 19:16:00,30.2,22.6,30.46,West,272,3.0,9.0,73,0.00,,,0.02,VWS V14.01,2013-01-15 00:16:00,
2013-01-14 19:31:00,30.0,23.0,30.45,WSW,251,0.0,5.0,75,0.00,,,0.02,VWS V14.01,2013-01-15 00:31:00,
2013-01-14 19:46:00,29.8,22.9,30.41,WNW,282,0.0,5.0,75,0.00,,,0.02,VWS V14.01,2013-01-15 00:46:00,
2013-01-14 20:01:00,29.7,22.1,30.39,WNW,288,1.0,5.0,73,0.00,,,0.02,VWS V14.01,2013-01-15 01:01:00,
2013-01-14 20:16:00,29.7,22.4,30.41,SW,229,0.0,5.0,74,0.00,,,0.02,VWS V14.01,2013-01-15 01:16:00,
2013-01-14 20:31:00,29.7,22.4,30.43,WSW,246,0.0,4.0,74,0.00,,,0.02,VWS V14.01,2013-01-15 01:31:00,
2013-01-14 20:46:00,29.7,22.4,30.43,SW,222,2.0,6.0,74,0.00,,,0.02,VWS V14.01,2013-01-15 01:46:00,
2013-01-14 21:01:00,29.7,22.1,30.43,West,279,2.0,6.0,73,0.00,,,0.02,VWS V14.01,2013-01-15 02:01:00,
2013-01-14 21:16:00,29.7,22.4,30.43,West,275,1.0,5.0,74,0.00,,,0.02,VWS V14.01,2013-01-15 02:16:00,
2013-01-14 21:31:00,29.7,22.4,30.44,WSW,245,4.0,5.0,74,0.00,,,0.02,VWS V14.01,2013-01-15 02:31:00,
2013-01-14 21:46:00,29.6,22.0,30.44,SW,230,0.0,6.0,73,0.00,,,0.02,VWS V14.01,2013-01-15 02:46:00,
2013-01-14 22:01:00,29.6,22.0,30.43,WNW,282,0.0,5.0,73,0.00,,,0.02,VWS V14.01,2013-01-15 03:01:00,
2013-01-14 22:16:00,29.4,21.8,30.43,WSW,252,0.0,8.0,73,0.00,,,0.02,VWS V14.01,2013-01-15 03:16:00,
2013-01-14 22:31:00,29.2,21.6,30.44,SW,230,2.0,8.0,73,0.00,,,0.02,VWS V14.01,2013-01-15 03:31:00,
2013-01-14 22:46:00,29.0,21.4,30.44,West,264,2.0,5.0,73,0.00,,,0.02,VWS V14.01,2013-01-15 03:46:00,
2013-01-14 23:01:00,28.8,21.6,30.43,SW,236,2.0,5.0,74,0.00,,,0.02,VWS V14.01,2013-01-15 04:01:00,
2013-01-14 23:16:00,28.7,21.5,30.42,West,259,2.0,5.0,74,0.00,,,0.02,VWS V14.01,2013-01-15 04:16:00,
2013-01-14 23:31:00,28.5,21.6,30.42,West,273,0.0,5.0,75,0.00,,,0.02,VWS V14.01,2013-01-15 04:31:00,
2013-01-14 23:46:00,28.1,21.8,30.42,West,273,0.0,2.0,77,0.00,,,0.02,VWS V14.01,2013-01-15 04:46:00,